sensor_id;sensor_type;location;lat;lon;timestamp;temperature;humidity
7784;DHT22;19359;51.402;6.778;2023-03-03T00:00:27;1.60;99.90
7784;DHT22;19359;51.402;6.778;2023-03-03T00:02:56;1.70;99.90
7784;DHT22;19359;51.402;6.778;2023-03-03T00:05:24;1.70;99.90
7784;DHT22;19359;51.402;6.778;2023-03-03T00:07:51;1.60;99.90
7784;DHT22;19359;51.402;6.778;2023-03-03T00:10:19;1.60;93.40
7784;DHT22;19359;51.402;6.778;2023-03-03T00:12:47;1.60;93.40
7784;DHT22;19359;51.402;6.778;2023-03-03T00:15:17;1.60;99.90
7784;DHT22;19359;51.402;6.778;2023-03-03T00:17:44;1.60;99.90
7784;DHT22;19359;51.402;6.778;2023-03-03T00:20:38;1.70;94.60
7784;DHT22;19359;51.402;6.778;2023-03-03T00:23:19;1.70;93.60
7784;DHT22;19359;51.402;6.778;2023-03-03T00:25:52;1.70;99.90
7784;DHT22;19359;51.402;6.778;2023-03-03T00:30:49;1.60;99.90
7784;DHT22;19359;51.402;6.778;2023-03-03T00:33:25;1.40;99.90
7784;DHT22;19359;51.402;6.778;2023-03-03T00:35:54;1.60;99.90
7784;DHT22;19359;51.402;6.778;2023-03-03T00:38:21;2.50;99.90
7784;DHT22;19359;51.402;6.778;2023-03-03T00:43:20;1.50;93.20
7784;DHT22;19359;51.402;6.778;2023-03-03T00:45:48;1.60;99.90
7784;DHT22;19359;51.402;6.778;2023-03-03T00:48:23;1.50;99.90
7784;DHT22;19359;51.402;6.778;2023-03-03T00:50:52;1.50;99.90
7784;DHT22;19359;51.402;6.778;2023-03-03T00:53:20;1.50;99.90
7784;DHT22;19359;51.402;6.778;2023-03-03T00:55:49;1.50;99.90
7784;DHT22;19359;51.402;6.778;2023-03-03T00:58:17;1.60;99.90
7784;DHT22;19359;51.402;6.778;2023-03-03T01:00:46;1.70;99.90
7784;DHT22;19359;51.402;6.778;2023-03-03T01:03:14;1.60;99.90
7784;DHT22;19359;51.402;6.778;2023-03-03T01:05:41;1.60;99.90
7784;DHT22;19359;51.402;6.778;2023-03-03T01:08:08;1.60;99.90
7784;DHT22;19359;51.402;6.778;2023-03-03T01:10:37;1.70;99.90
7784;DHT22;19359;51.402;6.778;2023-03-03T01:13:05;1.80;99.90
7784;DHT22;19359;51.402;6.778;2023-03-03T01:15:33;1.60;99.90
7784;DHT22;19359;51.402;6.778;2023-03-03T01:18:00;1.60;99.90
7784;DHT22;19359;51.402;6.778;2023-03-03T01:20:27;1.60;99.90
7784;DHT22;19359;51.402;6.778;2023-03-03T01:22:53;1.70;99.90
7784;DHT22;19359;51.402;6.778;2023-03-03T01:25:20;1.30;99.90
7784;DHT22;19359;51.402;6.778;2023-03-03T01:27:47;1.40;99.90
7784;DHT22;19359;51.402;6.778;2023-03-03T01:30:14;2.00;99.90
7784;DHT22;19359;51.402;6.778;2023-03-03T01:32:43;1.50;99.90
7784;DHT22;19359;51.402;6.778;2023-03-03T01:35:10;1.60;99.90
7784;DHT22;19359;51.402;6.778;2023-03-03T01:40:10;1.40;99.90
7784;DHT22;19359;51.402;6.778;2023-03-03T01:42:38;1.50;99.90
7784;DHT22;19359;51.402;6.778;2023-03-03T01:45:17;1.60;99.90
7784;DHT22;19359;51.402;6.778;2023-03-03T01:47:50;1.70;99.90
7784;DHT22;19359;51.402;6.778;2023-03-03T01:50:32;1.70;93.10
7784;DHT22;19359;51.402;6.778;2023-03-03T01:53:01;1.70;99.90
7784;DHT22;19359;51.402;6.778;2023-03-03T01:55:32;1.70;99.90
7784;DHT22;19359;51.402;6.778;2023-03-03T01:58:03;1.60;99.90
7784;DHT22;19359;51.402;6.778;2023-03-03T02:00:31;1.60;99.90
7784;DHT22;19359;51.402;6.778;2023-03-03T02:03:01;1.50;99.90
7784;DHT22;19359;51.402;6.778;2023-03-03T02:05:28;1.50;99.90
7784;DHT22;19359;51.402;6.778;2023-03-03T02:07:55;1.60;99.90
7784;DHT22;19359;51.402;6.778;2023-03-03T02:10:22;1.50;99.90
7784;DHT22;19359;51.402;6.778;2023-03-03T02:12:51;1.60;99.90
7784;DHT22;19359;51.402;6.778;2023-03-03T02:15:21;1.80;99.90
7784;DHT22;19359;51.402;6.778;2023-03-03T02:17:49;1.60;99.90
7784;DHT22;19359;51.402;6.778;2023-03-03T02:20:27;1.60;93.50
7784;DHT22;19359;51.402;6.778;2023-03-03T02:23:02;1.60;92.90
7784;DHT22;19359;51.402;6.778;2023-03-03T02:25:36;1.50;92.90
7784;DHT22;19359;51.402;6.778;2023-03-03T02:28:05;1.60;99.90
7784;DHT22;19359;51.402;6.778;2023-03-03T02:30:37;1.70;99.90
7784;DHT22;19359;51.402;6.778;2023-03-03T02:33:04;1.60;99.90
7784;DHT22;19359;51.402;6.778;2023-03-03T02:35:32;1.50;99.90
7784;DHT22;19359;51.402;6.778;2023-03-03T02:38:16;1.10;99.90
7784;DHT22;19359;51.402;6.778;2023-03-03T02:40:52;2.10;99.90
7784;DHT22;19359;51.402;6.778;2023-03-03T02:43:26;1.60;99.90
7784;DHT22;19359;51.402;6.778;2023-03-03T02:45:54;1.60;99.90
7784;DHT22;19359;51.402;6.778;2023-03-03T02:48:21;1.50;99.90
7784;DHT22;19359;51.402;6.778;2023-03-03T02:50:48;1.50;99.90
7784;DHT22;19359;51.402;6.778;2023-03-03T02:53:14;1.40;99.90
7784;DHT22;19359;51.402;6.778;2023-03-03T02:55:41;1.50;99.90
7784;DHT22;19359;51.402;6.778;2023-03-03T02:58:08;1.10;99.90
7784;DHT22;19359;51.402;6.778;2023-03-03T03:00:36;1.50;99.90
7784;DHT22;19359;51.402;6.778;2023-03-03T03:03:03;1.50;99.90
7784;DHT22;19359;51.402;6.778;2023-03-03T03:05:29;1.60;99.90
7784;DHT22;19359;51.402;6.778;2023-03-03T03:07:56;1.60;99.90
7784;DHT22;19359;51.402;6.778;2023-03-03T03:10:23;1.50;99.90
7784;DHT22;19359;51.402;6.778;2023-03-03T03:12:50;1.90;99.90
7784;DHT22;19359;51.402;6.778;2023-03-03T03:15:16;1.40;99.90
7784;DHT22;19359;51.402;6.778;2023-03-03T03:17:44;1.50;99.90
7784;DHT22;19359;51.402;6.778;2023-03-03T03:20:11;1.40;99.90
7784;DHT22;19359;51.402;6.778;2023-03-03T03:22:38;1.30;99.90
7784;DHT22;19359;51.402;6.778;2023-03-03T03:25:06;1.40;99.90
7784;DHT22;19359;51.402;6.778;2023-03-03T03:27:32;1.50;99.90
7784;DHT22;19359;51.402;6.778;2023-03-03T03:29:59;1.20;99.90
7784;DHT22;19359;51.402;6.778;2023-03-03T03:32:26;1.30;99.90
7784;DHT22;19359;51.402;6.778;2023-03-03T03:34:54;1.20;99.90
7784;DHT22;19359;51.402;6.778;2023-03-03T03:37:21;1.40;99.90
7784;DHT22;19359;51.402;6.778;2023-03-03T03:42:14;1.20;99.90
7784;DHT22;19359;51.402;6.778;2023-03-03T03:44:41;1.30;99.90
7784;DHT22;19359;51.402;6.778;2023-03-03T03:47:08;1.10;99.90
7784;DHT22;19359;51.402;6.778;2023-03-03T03:49:35;0.80;99.90
7784;DHT22;19359;51.402;6.778;2023-03-03T03:52:03;1.20;99.90
7784;DHT22;19359;51.402;6.778;2023-03-03T03:54:30;1.60;99.90
7784;DHT22;19359;51.402;6.778;2023-03-03T03:56:56;1.20;99.90
7784;DHT22;19359;51.402;6.778;2023-03-03T03:59:23;1.10;99.90
7784;DHT22;19359;51.402;6.778;2023-03-03T04:01:50;1.10;99.90
7784;DHT22;19359;51.402;6.778;2023-03-03T04:04:17;1.10;99.90
7784;DHT22;19359;51.402;6.778;2023-03-03T04:06:43;1.00;99.90
7784;DHT22;19359;51.402;6.778;2023-03-03T04:09:11;0.90;99.90
7784;DHT22;19359;51.402;6.778;2023-03-03T04:14:05;0.90;99.90
7784;DHT22;19359;51.402;6.778;2023-03-03T04:16:32;0.90;99.90
7784;DHT22;19359;51.402;6.778;2023-03-03T04:18:59;0.90;99.90
7784;DHT22;19359;51.402;6.778;2023-03-03T04:21:26;0.60;99.90
7784;DHT22;19359;51.402;6.778;2023-03-03T04:23:53;1.00;99.90
7784;DHT22;19359;51.402;6.778;2023-03-03T04:26:21;0.90;99.90
7784;DHT22;19359;51.402;6.778;2023-03-03T04:28:48;0.80;99.90
7784;DHT22;19359;51.402;6.778;2023-03-03T04:31:14;0.80;99.90
7784;DHT22;19359;51.402;6.778;2023-03-03T04:33:41;0.90;99.90
7784;DHT22;19359;51.402;6.778;2023-03-03T04:36:08;0.90;99.90
7784;DHT22;19359;51.402;6.778;2023-03-03T04:38:34;1.00;99.90
7784;DHT22;19359;51.402;6.778;2023-03-03T04:41:01;1.10;99.90
7784;DHT22;19359;51.402;6.778;2023-03-03T04:43:30;0.90;99.90
7784;DHT22;19359;51.402;6.778;2023-03-03T04:45:57;0.80;99.90
7784;DHT22;19359;51.402;6.778;2023-03-03T04:48:24;0.80;99.90
7784;DHT22;19359;51.402;6.778;2023-03-03T04:50:50;1.00;99.90
7784;DHT22;19359;51.402;6.778;2023-03-03T04:53:17;0.90;99.90
7784;DHT22;19359;51.402;6.778;2023-03-03T04:55:44;0.80;99.90
7784;DHT22;19359;51.402;6.778;2023-03-03T04:58:11;1.10;99.90
7784;DHT22;19359;51.402;6.778;2023-03-03T05:00:39;0.90;99.90
7784;DHT22;19359;51.402;6.778;2023-03-03T05:03:06;1.00;99.90
7784;DHT22;19359;51.402;6.778;2023-03-03T05:05:32;1.00;99.90
7784;DHT22;19359;51.402;6.778;2023-03-03T05:07:59;1.00;99.90
7784;DHT22;19359;51.402;6.778;2023-03-03T05:10:26;1.10;99.90
7784;DHT22;19359;51.402;6.778;2023-03-03T05:12:52;1.10;99.90
7784;DHT22;19359;51.402;6.778;2023-03-03T05:15:19;1.10;99.90
7784;DHT22;19359;51.402;6.778;2023-03-03T05:17:47;0.40;99.90
7784;DHT22;19359;51.402;6.778;2023-03-03T05:20:14;1.00;99.90
7784;DHT22;19359;51.402;6.778;2023-03-03T05:25:08;1.20;99.90
7784;DHT22;19359;51.402;6.778;2023-03-03T05:27:37;1.10;99.90
7784;DHT22;19359;51.402;6.778;2023-03-03T05:30:04;1.00;99.90
7784;DHT22;19359;51.402;6.778;2023-03-03T05:32:32;0.70;99.90
7784;DHT22;19359;51.402;6.778;2023-03-03T05:35:00;0.90;99.90
7784;DHT22;19359;51.402;6.778;2023-03-03T05:37:27;1.10;99.90
7784;DHT22;19359;51.402;6.778;2023-03-03T05:39:53;1.00;99.90
7784;DHT22;19359;51.402;6.778;2023-03-03T05:42:20;1.00;99.90
7784;DHT22;19359;51.402;6.778;2023-03-03T05:44:47;1.00;99.90
7784;DHT22;19359;51.402;6.778;2023-03-03T05:47:14;1.10;99.90
7784;DHT22;19359;51.402;6.778;2023-03-03T05:49:40;1.00;99.90
7784;DHT22;19359;51.402;6.778;2023-03-03T05:52:08;1.20;99.90
7784;DHT22;19359;51.402;6.778;2023-03-03T05:54:36;1.20;99.90
7784;DHT22;19359;51.402;6.778;2023-03-03T05:57:03;1.30;99.90
7784;DHT22;19359;51.402;6.778;2023-03-03T05:59:30;1.30;99.90
7784;DHT22;19359;51.402;6.778;2023-03-03T06:01:56;1.00;99.90
7784;DHT22;19359;51.402;6.778;2023-03-03T06:04:23;1.30;99.90
7784;DHT22;19359;51.402;6.778;2023-03-03T06:06:50;1.20;99.90
7784;DHT22;19359;51.402;6.778;2023-03-03T06:09:18;1.10;99.90
7784;DHT22;19359;51.402;6.778;2023-03-03T06:11:45;1.30;99.90
7784;DHT22;19359;51.402;6.778;2023-03-03T06:14:12;1.20;99.90
7784;DHT22;19359;51.402;6.778;2023-03-03T06:16:38;1.30;99.90
7784;DHT22;19359;51.402;6.778;2023-03-03T06:19:05;1.10;99.90
7784;DHT22;19359;51.402;6.778;2023-03-03T06:21:32;1.30;99.90
7784;DHT22;19359;51.402;6.778;2023-03-03T06:23:59;1.20;99.90
7784;DHT22;19359;51.402;6.778;2023-03-03T06:28:54;1.20;99.90
7784;DHT22;19359;51.402;6.778;2023-03-03T06:31:20;1.20;99.90
7784;DHT22;19359;51.402;6.778;2023-03-03T06:33:47;1.30;99.90
7784;DHT22;19359;51.402;6.778;2023-03-03T06:36:14;1.60;99.90
7784;DHT22;19359;51.402;6.778;2023-03-03T06:38:40;1.90;99.90
7784;DHT22;19359;51.402;6.778;2023-03-03T06:41:07;1.20;99.90
7784;DHT22;19359;51.402;6.778;2023-03-03T06:43:36;1.40;99.90
7784;DHT22;19359;51.402;6.778;2023-03-03T06:46:03;1.30;99.90
7784;DHT22;19359;51.402;6.778;2023-03-03T06:48:31;1.30;90.10
7784;DHT22;19359;51.402;6.778;2023-03-03T06:50:58;1.50;99.90
7784;DHT22;19359;51.402;6.778;2023-03-03T06:53:26;1.40;99.90
7784;DHT22;19359;51.402;6.778;2023-03-03T06:55:53;1.30;99.90
7784;DHT22;19359;51.402;6.778;2023-03-03T06:58:21;1.60;99.90
7784;DHT22;19359;51.402;6.778;2023-03-03T07:00:53;1.60;99.90
7784;DHT22;19359;51.402;6.778;2023-03-03T07:03:22;1.80;85.80
7784;DHT22;19359;51.402;6.778;2023-03-03T07:05:49;1.60;99.00
7784;DHT22;19359;51.402;6.778;2023-03-03T07:08:20;1.50;98.20
7784;DHT22;19359;51.402;6.778;2023-03-03T07:10:49;1.60;98.60
7784;DHT22;19359;51.402;6.778;2023-03-03T07:13:18;1.80;98.20
7784;DHT22;19359;51.402;6.778;2023-03-03T07:15:46;1.60;97.50
7784;DHT22;19359;51.402;6.778;2023-03-03T07:18:28;1.60;78.30
7784;DHT22;19359;51.402;6.778;2023-03-03T07:20:57;1.70;96.40
7784;DHT22;19359;51.402;6.778;2023-03-03T07:25:53;1.70;96.10
7784;DHT22;19359;51.402;6.778;2023-03-03T07:28:22;1.70;95.00
7784;DHT22;19359;51.402;6.778;2023-03-03T07:30:49;1.50;95.40
7784;DHT22;19359;51.402;6.778;2023-03-03T07:33:22;1.60;95.90
7784;DHT22;19359;51.402;6.778;2023-03-03T07:35:51;1.70;74.70
7784;DHT22;19359;51.402;6.778;2023-03-03T07:38:29;1.60;95.80
7784;DHT22;19359;51.402;6.778;2023-03-03T07:40:58;1.80;94.30
7784;DHT22;19359;51.402;6.778;2023-03-03T07:43:30;1.70;92.90
7784;DHT22;19359;51.402;6.778;2023-03-03T07:48:34;1.80;92.10
7784;DHT22;19359;51.402;6.778;2023-03-03T07:51:05;1.70;62.10
7784;DHT22;19359;51.402;6.778;2023-03-03T07:53:37;1.60;92.50
7784;DHT22;19359;51.402;6.778;2023-03-03T07:56:14;1.60;67.40
7784;DHT22;19359;51.402;6.778;2023-03-03T07:58:42;1.60;92.00
7784;DHT22;19359;51.402;6.778;2023-03-03T08:01:37;1.60;67.10
7784;DHT22;19359;51.402;6.778;2023-03-03T08:04:22;1.60;64.70
7784;DHT22;19359;51.402;6.778;2023-03-03T08:06:52;1.50;65.80
7784;DHT22;19359;51.402;6.778;2023-03-03T08:09:35;1.60;66.10
7784;DHT22;19359;51.402;6.778;2023-03-03T08:15:23;1.50;66.50
7784;DHT22;19359;51.402;6.778;2023-03-03T08:17:52;1.50;87.10
7784;DHT22;19359;51.402;6.778;2023-03-03T08:20:41;1.60;66.80
7784;DHT22;19359;51.402;6.778;2023-03-03T08:23:09;1.70;90.10
7784;DHT22;19359;51.402;6.778;2023-03-03T08:25:35;1.70;90.20
7784;DHT22;19359;51.402;6.778;2023-03-03T08:28:02;1.60;90.10
7784;DHT22;19359;51.402;6.778;2023-03-03T08:30:29;1.50;88.20
7784;DHT22;19359;51.402;6.778;2023-03-03T08:32:56;1.60;87.40
7784;DHT22;19359;51.402;6.778;2023-03-03T08:37:52;1.60;90.10
7784;DHT22;19359;51.402;6.778;2023-03-03T08:42:47;1.70;87.30
7784;DHT22;19359;51.402;6.778;2023-03-03T08:47:40;1.80;86.10
7784;DHT22;19359;51.402;6.778;2023-03-03T08:50:08;2.40;58.00
7784;DHT22;19359;51.402;6.778;2023-03-03T08:52:35;1.60;83.50
7784;DHT22;19359;51.402;6.778;2023-03-03T08:55:03;2.10;69.10
7784;DHT22;19359;51.402;6.778;2023-03-03T08:57:30;2.00;78.10
7784;DHT22;19359;51.402;6.778;2023-03-03T08:59:57;2.00;80.10
7784;DHT22;19359;51.402;6.778;2023-03-03T09:02:24;2.10;79.30
7784;DHT22;19359;51.402;6.778;2023-03-03T09:04:50;2.10;79.00
7784;DHT22;19359;51.402;6.778;2023-03-03T09:07:17;2.20;78.70
7784;DHT22;19359;51.402;6.778;2023-03-03T09:09:44;2.20;64.30
7784;DHT22;19359;51.402;6.778;2023-03-03T09:12:15;2.20;48.50
7784;DHT22;19359;51.402;6.778;2023-03-03T09:14:42;2.40;49.70
7784;DHT22;19359;51.402;6.778;2023-03-03T09:17:22;2.40;73.60
7784;DHT22;19359;51.402;6.778;2023-03-03T09:19:49;2.20;72.00
7784;DHT22;19359;51.402;6.778;2023-03-03T09:22:19;2.20;70.70
7784;DHT22;19359;51.402;6.778;2023-03-03T09:24:46;2.50;72.60
7784;DHT22;19359;51.402;6.778;2023-03-03T09:27:18;2.50;45.60
7784;DHT22;19359;51.402;6.778;2023-03-03T09:29:48;2.50;59.70
7784;DHT22;19359;51.402;6.778;2023-03-03T09:34:48;2.50;73.00
7784;DHT22;19359;51.402;6.778;2023-03-03T09:37:20;2.60;46.40
7784;DHT22;19359;51.402;6.778;2023-03-03T09:39:49;2.70;71.60
7784;DHT22;19359;51.402;6.778;2023-03-03T09:42:35;2.60;69.00
7784;DHT22;19359;51.402;6.778;2023-03-03T09:45:21;3.40;44.30
7784;DHT22;19359;51.402;6.778;2023-03-03T09:50:55;2.70;72.10
7784;DHT22;19359;51.402;6.778;2023-03-03T09:53:41;2.80;68.60
7784;DHT22;19359;51.402;6.778;2023-03-03T09:56:18;2.90;63.40
7784;DHT22;19359;51.402;6.778;2023-03-03T09:58:59;2.70;64.30
7784;DHT22;19359;51.402;6.778;2023-03-03T10:01:47;2.80;63.50
7784;DHT22;19359;51.402;6.778;2023-03-03T10:04:33;2.30;66.80
7784;DHT22;19359;51.402;6.778;2023-03-03T10:07:16;2.60;39.50
7784;DHT22;19359;51.402;6.778;2023-03-03T10:12:27;2.80;66.10
7784;DHT22;19359;51.402;6.778;2023-03-03T10:15:13;2.60;63.10
7784;DHT22;19359;51.402;6.778;2023-03-03T10:17:47;2.40;65.00
7784;DHT22;19359;51.402;6.778;2023-03-03T10:20:39;2.70;67.10
7784;DHT22;19359;51.402;6.778;2023-03-03T10:23:17;2.90;65.60
7784;DHT22;19359;51.402;6.778;2023-03-03T10:25:52;2.90;62.20
7784;DHT22;19359;51.402;6.778;2023-03-03T10:28:50;3.10;61.90
7784;DHT22;19359;51.402;6.778;2023-03-03T10:31:29;3.30;58.10
7784;DHT22;19359;51.402;6.778;2023-03-03T10:34:06;3.20;54.90
7784;DHT22;19359;51.402;6.778;2023-03-03T10:36:45;3.30;55.80
7784;DHT22;19359;51.402;6.778;2023-03-03T10:39:28;3.40;53.50
7784;DHT22;19359;51.402;6.778;2023-03-03T10:42:09;3.50;47.40
7784;DHT22;19359;51.402;6.778;2023-03-03T10:47:45;3.30;47.40
7784;DHT22;19359;51.402;6.778;2023-03-03T10:50:18;3.20;48.20
7784;DHT22;19359;51.402;6.778;2023-03-03T10:52:48;3.40;47.90
7784;DHT22;19359;51.402;6.778;2023-03-03T10:55:26;3.50;48.40
7784;DHT22;19359;51.402;6.778;2023-03-03T10:58:08;3.90;44.70
7784;DHT22;19359;51.402;6.778;2023-03-03T11:00:44;3.60;41.30
7784;DHT22;19359;51.402;6.778;2023-03-03T11:03:37;3.70;23.50
7784;DHT22;19359;51.402;6.778;2023-03-03T11:06:13;3.80;38.70
7784;DHT22;19359;51.402;6.778;2023-03-03T11:08:43;3.80;38.90
7784;DHT22;19359;51.402;6.778;2023-03-03T11:11:16;3.90;40.20
7784;DHT22;19359;51.402;6.778;2023-03-03T11:13:47;3.60;38.00
7784;DHT22;19359;51.402;6.778;2023-03-03T11:16:25;3.60;39.40
7784;DHT22;19359;51.402;6.778;2023-03-03T11:19:07;3.70;40.00
7784;DHT22;19359;51.402;6.778;2023-03-03T11:21:40;3.70;40.30
7784;DHT22;19359;51.402;6.778;2023-03-03T11:24:29;3.40;45.50
7784;DHT22;19359;51.402;6.778;2023-03-03T11:27:08;3.40;23.50
7784;DHT22;19359;51.402;6.778;2023-03-03T11:29:53;3.70;45.70
7784;DHT22;19359;51.402;6.778;2023-03-03T11:32:31;3.70;42.00
7784;DHT22;19359;51.402;6.778;2023-03-03T11:35:12;3.50;46.70
7784;DHT22;19359;51.402;6.778;2023-03-03T11:37:47;3.80;49.30
7784;DHT22;19359;51.402;6.778;2023-03-03T11:40:19;3.90;42.20
7784;DHT22;19359;51.402;6.778;2023-03-03T11:42:56;3.80;38.70
7784;DHT22;19359;51.402;6.778;2023-03-03T11:45:30;3.70;20.70
7784;DHT22;19359;51.402;6.778;2023-03-03T11:48:06;3.60;22.80
7784;DHT22;19359;51.402;6.778;2023-03-03T11:53:24;3.80;24.00
7784;DHT22;19359;51.402;6.778;2023-03-03T11:55:56;3.30;22.30
7784;DHT22;19359;51.402;6.778;2023-03-03T11:58:28;4.10;40.90
7784;DHT22;19359;51.402;6.778;2023-03-03T12:00:59;4.00;18.90
7784;DHT22;19359;51.402;6.778;2023-03-03T12:03:29;4.00;39.30
7784;DHT22;19359;51.402;6.778;2023-03-03T12:06:12;4.20;14.20
7784;DHT22;19359;51.402;6.778;2023-03-03T12:09:13;4.10;15.90
7784;DHT22;19359;51.402;6.778;2023-03-03T12:11:46;4.40;16.20
7784;DHT22;19359;51.402;6.778;2023-03-03T12:14:29;4.50;15.10
7784;DHT22;19359;51.402;6.778;2023-03-03T12:17:05;4.30;33.70
7784;DHT22;19359;51.402;6.778;2023-03-03T12:19:45;4.40;31.20
7784;DHT22;19359;51.402;6.778;2023-03-03T12:22:26;4.10;31.20
7784;DHT22;19359;51.402;6.778;2023-03-03T12:25:16;4.00;33.50
7784;DHT22;19359;51.402;6.778;2023-03-03T12:27:49;4.10;14.40
7784;DHT22;19359;51.402;6.778;2023-03-03T12:30:36;4.10;14.70
7784;DHT22;19359;51.402;6.778;2023-03-03T12:33:21;4.40;35.70
7784;DHT22;19359;51.402;6.778;2023-03-03T12:36:01;4.60;11.10
7784;DHT22;19359;51.402;6.778;2023-03-03T12:38:39;4.20;28.40
7784;DHT22;19359;51.402;6.778;2023-03-03T12:41:18;4.30;27.50
7784;DHT22;19359;51.402;6.778;2023-03-03T12:43:55;4.50;8.70
7784;DHT22;19359;51.402;6.778;2023-03-03T12:46:32;4.70;22.60
7784;DHT22;19359;51.402;6.778;2023-03-03T12:49:01;4.70;18.90
7784;DHT22;19359;51.402;6.778;2023-03-03T12:51:35;4.40;24.30
7784;DHT22;19359;51.402;6.778;2023-03-03T12:54:30;4.50;30.00
7784;DHT22;19359;51.402;6.778;2023-03-03T12:57:07;4.20;27.70
7784;DHT22;19359;51.402;6.778;2023-03-03T12:59:41;4.50;26.40
7784;DHT22;19359;51.402;6.778;2023-03-03T13:04:52;5.30;1.00
7784;DHT22;19359;51.402;6.778;2023-03-03T13:07:25;5.20;9.10
7784;DHT22;19359;51.402;6.778;2023-03-03T13:10:06;4.70;1.00
7784;DHT22;19359;51.402;6.778;2023-03-03T13:12:38;4.80;18.70
7784;DHT22;19359;51.402;6.778;2023-03-03T13:15:14;5.30;14.40
7784;DHT22;19359;51.402;6.778;2023-03-03T13:17:48;6.10;1.00
7784;DHT22;19359;51.402;6.778;2023-03-03T13:20:24;7.50;1.00
7784;DHT22;19359;51.402;6.778;2023-03-03T13:23:02;8.00;1.00
7784;DHT22;19359;51.402;6.778;2023-03-03T13:25:46;8.30;1.00
7784;DHT22;19359;51.402;6.778;2023-03-03T13:28:21;9.00;1.00
7784;DHT22;19359;51.402;6.778;2023-03-03T13:30:56;8.70;1.00
7784;DHT22;19359;51.402;6.778;2023-03-03T13:33:26;7.00;1.00
7784;DHT22;19359;51.402;6.778;2023-03-03T13:35:57;6.40;1.00
7784;DHT22;19359;51.402;6.778;2023-03-03T13:38:27;7.30;1.00
7784;DHT22;19359;51.402;6.778;2023-03-03T13:41:03;8.30;1.00
7784;DHT22;19359;51.402;6.778;2023-03-03T13:43:37;9.40;1.00
7784;DHT22;19359;51.402;6.778;2023-03-03T13:46:13;9.50;1.00
7784;DHT22;19359;51.402;6.778;2023-03-03T13:49:06;10.20;1.00
7784;DHT22;19359;51.402;6.778;2023-03-03T13:51:42;11.20;1.00
7784;DHT22;19359;51.402;6.778;2023-03-03T13:54:17;11.70;1.00
7784;DHT22;19359;51.402;6.778;2023-03-03T13:57:09;11.50;1.00
7784;DHT22;19359;51.402;6.778;2023-03-03T13:59:44;11.10;1.00
7784;DHT22;19359;51.402;6.778;2023-03-03T14:02:36;11.30;1.00
7784;DHT22;19359;51.402;6.778;2023-03-03T14:05:12;11.10;1.00
7784;DHT22;19359;51.402;6.778;2023-03-03T14:07:45;12.40;1.00
7784;DHT22;19359;51.402;6.778;2023-03-03T14:10:20;12.80;1.00
7784;DHT22;19359;51.402;6.778;2023-03-03T14:13:00;12.90;1.00
7784;DHT22;19359;51.402;6.778;2023-03-03T14:15:29;11.80;1.00
7784;DHT22;19359;51.402;6.778;2023-03-03T14:18:09;12.00;1.00
7784;DHT22;19359;51.402;6.778;2023-03-03T14:20:44;11.90;1.00
7784;DHT22;19359;51.402;6.778;2023-03-03T14:23:15;12.00;1.00
7784;DHT22;19359;51.402;6.778;2023-03-03T14:25:57;11.40;1.00
7784;DHT22;19359;51.402;6.778;2023-03-03T14:28:27;11.80;1.00
7784;DHT22;19359;51.402;6.778;2023-03-03T14:30:55;11.40;1.00
7784;DHT22;19359;51.402;6.778;2023-03-03T14:36:11;12.10;1.00
7784;DHT22;19359;51.402;6.778;2023-03-03T14:38:46;12.00;1.00
7784;DHT22;19359;51.402;6.778;2023-03-03T14:41:18;12.00;1.00
7784;DHT22;19359;51.402;6.778;2023-03-03T14:43:56;11.90;1.00
7784;DHT22;19359;51.402;6.778;2023-03-03T14:46:34;12.40;1.00
7784;DHT22;19359;51.402;6.778;2023-03-03T14:49:03;12.90;1.00
7784;DHT22;19359;51.402;6.778;2023-03-03T14:51:39;13.00;1.00
7784;DHT22;19359;51.402;6.778;2023-03-03T14:54:10;13.50;1.00
7784;DHT22;19359;51.402;6.778;2023-03-03T14:56:59;14.20;1.00
7784;DHT22;19359;51.402;6.778;2023-03-03T14:59:28;14.00;1.00
7784;DHT22;19359;51.402;6.778;2023-03-03T15:02:00;13.80;1.00
7784;DHT22;19359;51.402;6.778;2023-03-03T15:04:28;13.60;1.00
7784;DHT22;19359;51.402;6.778;2023-03-03T15:09:28;14.20;1.00
7784;DHT22;19359;51.402;6.778;2023-03-03T15:11:59;14.20;1.00
7784;DHT22;19359;51.402;6.778;2023-03-03T15:14:35;14.50;1.00
7784;DHT22;19359;51.402;6.778;2023-03-03T15:17:23;14.50;1.00
7784;DHT22;19359;51.402;6.778;2023-03-03T15:20:02;14.20;1.00
7784;DHT22;19359;51.402;6.778;2023-03-03T15:22:47;13.60;1.00
7784;DHT22;19359;51.402;6.778;2023-03-03T15:25:23;13.80;1.00
7784;DHT22;19359;51.402;6.778;2023-03-03T15:30:27;13.90;1.00
7784;DHT22;19359;51.402;6.778;2023-03-03T15:33:00;13.40;1.00
7784;DHT22;19359;51.402;6.778;2023-03-03T15:35:37;12.60;1.00
7784;DHT22;19359;51.402;6.778;2023-03-03T15:38:17;11.20;1.00
7784;DHT22;19359;51.402;6.778;2023-03-03T15:40:48;10.80;1.00
7784;DHT22;19359;51.402;6.778;2023-03-03T15:43:22;11.30;1.00
7784;DHT22;19359;51.402;6.778;2023-03-03T15:48:41;10.50;1.00
7784;DHT22;19359;51.402;6.778;2023-03-03T15:51:18;9.70;1.00
7784;DHT22;19359;51.402;6.778;2023-03-03T15:54:24;9.20;1.00
7784;DHT22;19359;51.402;6.778;2023-03-03T15:56:55;9.70;1.00
7784;DHT22;19359;51.402;6.778;2023-03-03T15:59:40;9.60;1.00
7784;DHT22;19359;51.402;6.778;2023-03-03T16:02:19;9.50;1.00
7784;DHT22;19359;51.402;6.778;2023-03-03T16:04:52;9.40;1.00
7784;DHT22;19359;51.402;6.778;2023-03-03T16:07:30;9.60;1.00
7784;DHT22;19359;51.402;6.778;2023-03-03T16:10:09;9.20;1.00
7784;DHT22;19359;51.402;6.778;2023-03-03T16:12:42;8.70;1.00
7784;DHT22;19359;51.402;6.778;2023-03-03T16:18:08;8.70;1.00
7784;DHT22;19359;51.402;6.778;2023-03-03T16:20:42;7.90;1.00
7784;DHT22;19359;51.402;6.778;2023-03-03T16:26:03;7.40;1.00
7784;DHT22;19359;51.402;6.778;2023-03-03T16:28:50;7.30;1.00
7784;DHT22;19359;51.402;6.778;2023-03-03T16:31:22;7.30;1.00
7784;DHT22;19359;51.402;6.778;2023-03-03T16:33:57;7.20;1.00
7784;DHT22;19359;51.402;6.778;2023-03-03T16:36:31;7.10;1.00
7784;DHT22;19359;51.402;6.778;2023-03-03T16:39:03;7.20;1.00
7784;DHT22;19359;51.402;6.778;2023-03-03T16:41:43;7.10;1.00
7784;DHT22;19359;51.402;6.778;2023-03-03T16:44:24;6.90;1.00
7784;DHT22;19359;51.402;6.778;2023-03-03T16:47:01;6.90;1.00
7784;DHT22;19359;51.402;6.778;2023-03-03T16:49:36;6.40;1.00
7784;DHT22;19359;51.402;6.778;2023-03-03T16:52:11;6.40;1.00
7784;DHT22;19359;51.402;6.778;2023-03-03T16:54:42;6.50;1.00
7784;DHT22;19359;51.402;6.778;2023-03-03T16:57:18;6.40;1.00
7784;DHT22;19359;51.402;6.778;2023-03-03T16:59:55;6.30;1.00
7784;DHT22;19359;51.402;6.778;2023-03-03T17:02:40;6.00;1.00
7784;DHT22;19359;51.402;6.778;2023-03-03T17:05:23;6.10;1.00
7784;DHT22;19359;51.402;6.778;2023-03-03T17:08:05;6.00;1.00
7784;DHT22;19359;51.402;6.778;2023-03-03T17:10:41;5.90;1.60
7784;DHT22;19359;51.402;6.778;2023-03-03T17:13:19;5.60;1.90
7784;DHT22;19359;51.402;6.778;2023-03-03T17:16:01;5.70;3.70
7784;DHT22;19359;51.402;6.778;2023-03-03T17:18:39;5.60;6.30
7784;DHT22;19359;51.402;6.778;2023-03-03T17:26:32;5.10;1.00
7784;DHT22;19359;51.402;6.778;2023-03-03T17:29:12;5.00;1.00
7784;DHT22;19359;51.402;6.778;2023-03-03T17:31:49;4.90;18.50
7784;DHT22;19359;51.402;6.778;2023-03-03T17:34:33;4.50;20.80
7784;DHT22;19359;51.402;6.778;2023-03-03T17:42:22;4.00;28.20
7784;DHT22;19359;51.402;6.778;2023-03-03T17:44:59;3.70;32.80
7784;DHT22;19359;51.402;6.778;2023-03-03T17:47:40;3.50;35.40
7784;DHT22;19359;51.402;6.778;2023-03-03T17:50:20;3.30;37.70
7784;DHT22;19359;51.402;6.778;2023-03-03T17:53:05;3.50;40.60
7784;DHT22;19359;51.402;6.778;2023-03-03T17:55:57;3.40;24.30